createdAt,value
2017-09-07T00:02:10.422Z,2.23
2017-09-07T00:04:38.323Z,2.20
2017-09-07T00:07:06.120Z,2.03
2017-09-07T00:09:33.927Z,2.10
2017-09-07T00:12:01.804Z,2.10
2017-09-07T00:14:30.521Z,2.30
2017-09-07T00:16:58.455Z,2.60
2017-09-07T00:19:26.267Z,2.00
2017-09-07T00:21:54.190Z,2.67
2017-09-07T00:24:23.179Z,2.00
2017-09-07T00:26:51.550Z,2.53
2017-09-07T00:29:19.351Z,2.50
2017-09-07T00:31:47.191Z,2.80
2017-09-07T00:34:15.079Z,2.50
2017-09-07T00:36:43.552Z,2.40
2017-09-07T00:39:11.422Z,2.20
2017-09-07T00:41:39.376Z,3.60
2017-09-07T00:44:07.253Z,2.67
2017-09-07T00:46:35.018Z,2.70
2017-09-07T00:49:02.838Z,2.93
2017-09-07T00:51:30.870Z,4.17
2017-09-07T00:53:58.752Z,2.53
2017-09-07T00:56:26.596Z,2.63
2017-09-07T00:58:54.458Z,2.77
2017-09-07T01:01:22.326Z,2.90
2017-09-07T01:03:50.072Z,3.03
2017-09-07T01:06:17.865Z,2.70
2017-09-07T01:08:45.802Z,3.10
2017-09-07T01:11:13.787Z,2.83
2017-09-07T01:13:42.473Z,3.10
2017-09-07T01:16:10.349Z,2.97
2017-09-07T01:18:38.133Z,2.80
2017-09-07T01:21:05.933Z,2.67
2017-09-07T01:23:33.937Z,3.10
2017-09-07T01:26:01.996Z,2.83
2017-09-07T01:28:29.886Z,3.03
2017-09-07T01:30:57.723Z,3.07
2017-09-07T01:33:25.613Z,3.10
2017-09-07T01:35:53.384Z,3.03
2017-09-07T01:38:21.262Z,3.13
2017-09-07T01:40:58.821Z,3.50
2017-09-07T01:43:26.594Z,2.87
2017-09-07T01:45:55.073Z,2.50
2017-09-07T01:48:34.926Z,3.10
2017-09-07T01:51:02.690Z,3.60
2017-09-07T01:53:30.750Z,2.70
2017-09-07T01:55:58.499Z,3.07
2017-09-07T01:58:26.302Z,3.17
2017-09-07T02:00:54.241Z,2.77
2017-09-07T02:03:22.124Z,3.07
2017-09-07T02:05:49.985Z,3.00
2017-09-07T02:08:17.896Z,3.50
2017-09-07T02:10:45.704Z,2.67
2017-09-07T02:13:13.799Z,3.00
2017-09-07T02:15:41.672Z,3.60
2017-09-07T02:18:09.539Z,2.77
2017-09-07T02:20:37.292Z,3.17
2017-09-07T02:23:05.051Z,3.07
2017-09-07T02:25:32.787Z,2.97
2017-09-07T02:28:01.398Z,2.90
2017-09-07T02:30:29.176Z,3.43
2017-09-07T02:32:57.016Z,2.83
2017-09-07T02:35:25.152Z,3.07
2017-09-07T02:37:53.791Z,3.07
2017-09-07T02:40:21.773Z,3.50
2017-09-07T02:42:49.611Z,3.03
2017-09-07T02:45:17.347Z,3.13
2017-09-07T02:47:45.107Z,3.23
2017-09-07T02:50:13.004Z,3.97
2017-09-07T02:52:40.787Z,3.17
2017-09-07T02:55:09.352Z,3.20
2017-09-07T02:57:37.321Z,2.73
2017-09-07T03:00:05.038Z,3.10
2017-09-07T03:02:32.953Z,2.90
2017-09-07T03:05:00.709Z,3.23
2017-09-07T03:07:28.557Z,3.50
2017-09-07T03:09:56.769Z,3.30
2017-09-07T03:12:24.538Z,3.40
2017-09-07T03:14:52.408Z,3.70
2017-09-07T03:17:20.150Z,3.43
2017-09-07T03:19:48.012Z,5.03
2017-09-07T03:22:15.890Z,4.90
2017-09-07T03:24:44.260Z,4.70
2017-09-07T03:27:12.165Z,4.20
2017-09-07T03:29:39.875Z,4.30
2017-09-07T03:32:08.696Z,4.00
2017-09-07T03:34:36.544Z,4.43
2017-09-07T03:37:04.328Z,3.43
2017-09-07T03:39:33.215Z,3.40
2017-09-07T03:42:00.963Z,3.57
2017-09-07T03:44:28.836Z,3.67
2017-09-07T03:46:56.586Z,3.10
2017-09-07T03:49:24.380Z,3.00
2017-09-07T03:51:52.109Z,2.70
2017-09-07T03:54:19.836Z,3.30
2017-09-07T03:56:48.674Z,3.57
2017-09-07T03:59:16.454Z,3.80
2017-09-07T04:01:50.695Z,3.10
2017-09-07T04:04:18.535Z,2.80
2017-09-07T04:06:46.277Z,3.80
2017-09-07T04:09:14.373Z,3.03
2017-09-07T04:11:42.222Z,2.97
2017-09-07T04:14:10.057Z,3.00
2017-09-07T04:16:37.868Z,3.47
2017-09-07T04:19:05.591Z,3.07
2017-09-07T04:21:34.525Z,3.17
2017-09-07T04:24:02.373Z,3.00
2017-09-07T04:26:30.446Z,3.60
2017-09-07T04:28:58.331Z,3.97
2017-09-07T04:31:26.218Z,3.60
2017-09-07T04:33:54.076Z,3.13
2017-09-07T04:36:21.818Z,3.43
2017-09-07T04:38:50.407Z,3.00
2017-09-07T04:41:18.168Z,3.30
2017-09-07T04:43:45.901Z,3.90
2017-09-07T04:46:13.696Z,3.63
2017-09-07T04:48:41.559Z,3.97
2017-09-07T04:51:09.451Z,3.67
2017-09-07T04:53:37.332Z,3.47
2017-09-07T04:56:05.249Z,3.53
2017-09-07T04:58:33.094Z,4.00
2017-09-07T05:01:01.187Z,3.60
2017-09-07T05:03:29.058Z,4.47
2017-09-07T05:05:56.823Z,3.70
2017-09-07T05:08:24.556Z,3.60
2017-09-07T05:10:52.282Z,2.80
2017-09-07T05:13:20.620Z,3.77
2017-09-07T05:15:48.820Z,4.13
2017-09-07T05:18:16.575Z,3.37
2017-09-07T05:20:44.439Z,3.63
2017-09-07T05:23:12.894Z,4.17
2017-09-07T05:25:40.642Z,2.53
2017-09-07T05:28:08.719Z,3.83
2017-09-07T05:30:36.607Z,4.20
2017-09-07T05:33:04.353Z,3.70
2017-09-07T05:35:32.281Z,3.47
2017-09-07T05:38:00.027Z,3.97
2017-09-07T05:40:27.872Z,5.00
2017-09-07T05:42:55.764Z,5.00
2017-09-07T05:45:23.612Z,5.60
2017-09-07T05:47:51.376Z,3.93
2017-09-07T05:50:19.437Z,4.27
2017-09-07T05:52:47.419Z,4.00
2017-09-07T05:55:15.389Z,4.00
2017-09-07T05:57:43.122Z,4.20
2017-09-07T06:00:10.859Z,3.90
2017-09-07T06:02:38.690Z,4.63
2017-09-07T06:05:07.051Z,4.20
2017-09-07T06:07:34.927Z,4.00
2017-09-07T06:10:02.672Z,3.00
2017-09-07T06:12:30.542Z,5.00
2017-09-07T06:14:59.449Z,3.70
2017-09-07T06:17:27.282Z,3.70
2017-09-07T06:19:55.079Z,4.30
2017-09-07T06:22:22.846Z,3.63
2017-09-07T06:24:50.715Z,3.90
2017-09-07T06:27:18.585Z,3.57
2017-09-07T06:29:46.361Z,3.73
2017-09-07T06:32:14.311Z,3.17
2017-09-07T06:34:42.120Z,3.50
2017-09-07T06:37:10.054Z,4.13
2017-09-07T06:39:38.747Z,3.43
2017-09-07T06:42:06.602Z,4.53
2017-09-07T06:44:35.371Z,4.10
2017-09-07T06:47:03.210Z,3.80
2017-09-07T06:49:31.024Z,4.10
2017-09-07T06:51:58.788Z,3.63
2017-09-07T06:54:27.032Z,2.70
2017-09-07T06:56:54.814Z,3.23
2017-09-07T06:59:22.882Z,3.60
2017-09-07T07:01:50.688Z,2.73
2017-09-07T07:04:19.152Z,3.80
2017-09-07T07:06:47.096Z,3.53
2017-09-07T07:09:14.959Z,3.33
2017-09-07T07:11:42.746Z,3.73
2017-09-07T07:14:10.704Z,3.93
2017-09-07T07:16:38.667Z,5.00
2017-09-07T07:19:06.646Z,4.40
2017-09-07T07:21:34.710Z,4.80
2017-09-07T07:24:02.462Z,4.40
2017-09-07T07:26:30.179Z,3.80
2017-09-07T07:28:57.963Z,3.70
2017-09-07T07:31:25.788Z,3.70
2017-09-07T07:33:54.151Z,3.50
2017-09-07T07:36:22.201Z,3.57
2017-09-07T07:38:49.938Z,3.93
2017-09-07T07:41:17.670Z,3.97
2017-09-07T07:43:45.724Z,3.47
2017-09-07T07:46:13.583Z,3.53
2017-09-07T07:48:41.950Z,3.67
2017-09-07T07:51:09.668Z,4.30
2017-09-07T07:53:37.406Z,3.00
2017-09-07T07:56:05.255Z,3.57
2017-09-07T07:58:33.108Z,3.13
2017-09-07T08:01:01.177Z,3.47
2017-09-07T08:03:29.041Z,3.57
2017-09-07T08:05:56.802Z,3.17
2017-09-07T08:08:24.578Z,4.90
2017-09-07T08:10:52.351Z,3.60
2017-09-07T08:13:20.086Z,3.53
2017-09-07T08:15:49.034Z,3.30
2017-09-07T08:18:17.056Z,3.13
2017-09-07T08:20:45.030Z,3.03
2017-09-07T08:23:12.827Z,3.83
2017-09-07T08:25:40.775Z,3.80
2017-09-07T08:28:08.864Z,3.47
2017-09-07T08:30:37.380Z,3.37
2017-09-07T08:33:05.282Z,3.33
2017-09-07T08:35:33.099Z,3.33
2017-09-07T08:38:01.351Z,3.90
2017-09-07T08:40:29.084Z,3.63
2017-09-07T08:42:56.839Z,3.87
2017-09-07T08:45:24.616Z,3.80
2017-09-07T08:47:52.474Z,3.30
2017-09-07T08:50:20.382Z,4.20
2017-09-07T08:52:48.212Z,3.63
2017-09-07T08:55:16.816Z,3.90
2017-09-07T08:57:44.679Z,4.00
2017-09-07T09:00:12.454Z,3.80
2017-09-07T09:02:40.352Z,3.43
2017-09-07T09:05:08.191Z,3.70
2017-09-07T09:07:36.260Z,3.33
2017-09-07T09:10:04.127Z,3.07
2017-09-07T09:12:31.955Z,3.33
2017-09-07T09:15:00.670Z,3.00
2017-09-07T09:17:28.936Z,3.50
2017-09-07T09:19:57.138Z,3.30
2017-09-07T09:22:24.954Z,3.70
2017-09-07T09:24:52.750Z,3.17
2017-09-07T09:27:20.505Z,3.30
2017-09-07T09:29:48.360Z,3.40
2017-09-07T09:32:17.249Z,4.23
2017-09-07T09:34:46.161Z,3.60
2017-09-07T09:37:14.131Z,4.33
2017-09-07T09:39:42.162Z,4.43
2017-09-07T09:42:10.080Z,3.90
2017-09-07T09:44:38.019Z,4.30
2017-09-07T09:47:06.000Z,3.77
2017-09-07T09:49:33.850Z,3.80
2017-09-07T09:52:01.635Z,3.73
2017-09-07T09:54:29.516Z,3.73
2017-09-07T09:56:57.380Z,3.67
2017-09-07T09:59:25.227Z,3.53
2017-09-07T10:01:53.189Z,3.63
2017-09-07T10:04:21.374Z,3.73
2017-09-07T10:06:49.193Z,4.33
2017-09-07T10:09:17.199Z,3.63
2017-09-07T10:11:45.468Z,3.57
2017-09-07T10:14:13.848Z,3.57
2017-09-07T10:16:41.833Z,3.70
2017-09-07T10:19:09.618Z,4.33
2017-09-07T10:21:37.708Z,4.47
2017-09-07T10:24:05.824Z,3.00
2017-09-07T10:26:34.868Z,4.20
2017-09-07T10:29:03.097Z,4.70
2017-09-07T10:31:31.214Z,4.57
2017-09-07T10:33:59.124Z,4.10
2017-09-07T10:36:27.549Z,3.87
2017-09-07T10:38:55.380Z,4.60
2017-09-07T10:41:24.078Z,3.93
2017-09-07T10:43:52.059Z,3.23
2017-09-07T10:46:19.929Z,3.90
2017-09-07T10:48:48.323Z,3.47
2017-09-07T10:51:16.073Z,4.00
2017-09-07T10:53:44.033Z,3.57
2017-09-07T10:56:12.520Z,3.33
2017-09-07T10:58:40.571Z,3.50
2017-09-07T11:01:08.355Z,3.40
2017-09-07T11:03:36.198Z,4.03
2017-09-07T11:06:04.092Z,5.00
2017-09-07T11:08:32.054Z,3.73
2017-09-07T11:10:59.797Z,4.23
2017-09-07T11:13:27.658Z,4.60
2017-09-07T11:15:56.255Z,3.60
2017-09-07T11:18:24.002Z,3.70
2017-09-07T11:20:51.877Z,3.60
2017-09-07T11:23:19.742Z,4.30
2017-09-07T11:25:47.707Z,4.07
2017-09-07T11:28:15.451Z,4.40
2017-09-07T11:30:43.216Z,4.23
2017-09-07T11:33:11.227Z,4.97
2017-09-07T11:35:38.996Z,4.00
2017-09-07T11:38:06.945Z,4.07
2017-09-07T11:40:34.760Z,4.03
2017-09-07T11:43:02.595Z,4.07
2017-09-07T11:45:30.521Z,4.00
2017-09-07T11:47:58.279Z,3.87
2017-09-07T11:50:26.195Z,4.10
2017-09-07T11:52:54.384Z,4.10
2017-09-07T11:55:22.157Z,3.63
2017-09-07T11:57:50.088Z,3.77
2017-09-07T12:00:18.053Z,3.37
2017-09-07T12:02:46.011Z,3.93
2017-09-07T12:05:14.009Z,3.90
2017-09-07T12:07:42.306Z,3.73
2017-09-07T12:10:10.127Z,4.47
2017-09-07T12:12:37.996Z,4.30
2017-09-07T12:15:05.782Z,4.17
2017-09-07T12:17:33.633Z,3.37
2017-09-07T12:20:01.816Z,4.40
2017-09-07T12:22:29.588Z,4.53
2017-09-07T12:24:59.376Z,3.63
2017-09-07T12:27:27.156Z,3.33
2017-09-07T12:29:55.036Z,3.30
2017-09-07T12:32:22.884Z,3.80
2017-09-07T12:34:50.666Z,4.10
2017-09-07T12:37:18.707Z,4.17
2017-09-07T12:39:47.714Z,3.90
2017-09-07T12:42:15.795Z,3.50
2017-09-07T12:44:44.266Z,4.00
2017-09-07T12:47:12.120Z,4.10
2017-09-07T12:49:39.986Z,3.93
2017-09-07T12:52:07.732Z,3.50
2017-09-07T12:54:35.619Z,3.70
2017-09-07T12:57:03.379Z,3.77
2017-09-07T12:59:31.351Z,3.67
2017-09-07T13:01:59.208Z,3.50
2017-09-07T13:04:27.718Z,3.97
2017-09-07T13:06:55.571Z,3.50
2017-09-07T13:09:23.534Z,3.90
2017-09-07T13:11:51.508Z,4.23
2017-09-07T13:14:19.395Z,3.90
2017-09-07T13:16:47.367Z,3.83
2017-09-07T13:19:15.423Z,3.60
2017-09-07T13:21:43.234Z,3.23
2017-09-07T13:24:11.552Z,4.13
2017-09-07T13:26:39.371Z,3.30
2017-09-07T13:29:08.364Z,4.10
2017-09-07T13:31:36.300Z,3.60
2017-09-07T13:34:33.655Z,3.90
2017-09-07T13:37:02.224Z,3.40
2017-09-07T13:39:30.359Z,3.47
2017-09-07T13:41:58.255Z,3.77
2017-09-07T13:44:26.314Z,3.40
2017-09-07T13:46:54.311Z,3.90
2017-09-07T13:49:23.293Z,3.57
2017-09-07T13:51:51.168Z,3.30
2017-09-07T13:54:19.080Z,3.67
2017-09-07T13:56:47.500Z,3.10
2017-09-07T13:59:15.941Z,3.73
2017-09-07T14:01:44.585Z,3.40
2017-09-07T14:04:12.539Z,2.97
2017-09-07T14:06:40.692Z,3.53
2017-09-07T14:09:08.578Z,3.60
2017-09-07T14:11:36.868Z,3.40
2017-09-07T14:14:04.728Z,3.50
2017-09-07T14:16:32.625Z,4.10
2017-09-07T14:19:01.464Z,3.60
2017-09-07T14:21:29.237Z,3.77
2017-09-07T14:23:57.007Z,2.87
2017-09-07T14:26:25.590Z,3.90
2017-09-07T14:28:53.560Z,3.30
2017-09-07T14:31:21.319Z,3.63
2017-09-07T14:33:49.098Z,3.73
2017-09-07T14:36:16.970Z,3.80
2017-09-07T14:38:44.771Z,3.07
2017-09-07T14:41:13.426Z,3.70
2017-09-07T14:43:42.010Z,3.83
2017-09-07T14:46:09.906Z,3.30
2017-09-07T14:48:38.490Z,2.93
2017-09-07T14:51:07.127Z,3.27
2017-09-07T14:53:34.925Z,3.70
2017-09-07T14:56:03.674Z,2.90
2017-09-07T14:58:31.852Z,3.43
2017-09-07T15:00:59.612Z,3.20
2017-09-07T15:03:27.561Z,3.53
2017-09-07T15:05:55.411Z,3.50
2017-09-07T15:08:23.227Z,3.60
2017-09-07T15:10:51.190Z,3.80
2017-09-07T15:13:19.259Z,3.37
2017-09-07T15:15:47.239Z,2.97
2017-09-07T15:18:15.050Z,2.80
2017-09-07T15:20:43.062Z,4.00
2017-09-07T15:23:11.867Z,4.40
2017-09-07T15:25:40.014Z,3.40
2017-09-07T15:28:07.987Z,3.67
2017-09-07T15:30:35.766Z,3.70
2017-09-07T15:33:03.740Z,3.57
2017-09-07T15:35:31.496Z,3.40
2017-09-07T15:37:59.662Z,3.00
2017-09-07T15:40:27.487Z,3.00
2017-09-07T15:42:56.273Z,2.80
2017-09-07T15:45:24.662Z,2.97
2017-09-07T15:47:52.781Z,3.50
2017-09-07T15:50:21.651Z,3.00
2017-09-07T15:52:49.515Z,3.33
2017-09-07T15:55:17.259Z,2.97
2017-09-07T15:57:45.346Z,3.40
2017-09-07T16:00:13.248Z,3.17
2017-09-07T16:02:41.186Z,3.50
2017-09-07T16:05:09.155Z,3.40
2017-09-07T16:07:37.528Z,3.70
2017-09-07T16:10:05.303Z,4.33
2017-09-07T16:12:33.203Z,3.93
2017-09-07T16:15:03.078Z,2.90
2017-09-07T16:17:31.195Z,3.83
2017-09-07T16:19:59.995Z,3.40
2017-09-07T16:22:28.922Z,3.10
2017-09-07T16:24:56.897Z,3.63
2017-09-07T16:27:24.984Z,5.00
2017-09-07T16:29:52.837Z,3.07
2017-09-07T16:32:20.834Z,3.33
2017-09-07T16:34:49.007Z,4.07
2017-09-07T16:37:17.686Z,4.13
2017-09-07T16:39:45.633Z,3.00
2017-09-07T16:42:13.505Z,3.20
2017-09-07T16:44:41.590Z,3.60
2017-09-07T16:47:09.980Z,4.10
2017-09-07T16:49:38.560Z,3.37
2017-09-07T16:52:06.502Z,5.13
2017-09-07T16:54:34.292Z,3.27
2017-09-07T16:57:02.215Z,3.43
2017-09-07T16:59:30.181Z,3.70
2017-09-07T17:01:58.174Z,3.50
2017-09-07T17:04:26.136Z,3.57
2017-09-07T17:06:54.161Z,4.13
2017-09-07T17:09:22.898Z,3.13
2017-09-07T17:11:50.873Z,2.93
2017-09-07T17:14:19.078Z,3.30
2017-09-07T17:16:46.930Z,2.90
2017-09-07T17:19:14.797Z,2.60
2017-09-07T17:21:42.564Z,3.43
2017-09-07T17:24:10.406Z,3.13
2017-09-07T17:26:38.318Z,3.60
2017-09-07T17:29:06.937Z,3.63
2017-09-07T17:31:34.739Z,2.97
2017-09-07T17:34:04.155Z,3.63
2017-09-07T17:36:32.016Z,2.87
2017-09-07T17:38:59.964Z,3.67
2017-09-07T17:41:27.780Z,3.17
2017-09-07T17:43:56.317Z,3.43
2017-09-07T17:46:25.227Z,3.97
2017-09-07T17:48:52.990Z,3.63
2017-09-07T17:51:20.833Z,4.00
2017-09-07T17:53:49.739Z,3.83
2017-09-07T17:56:18.532Z,3.97
2017-09-07T17:58:47.500Z,5.03
2017-09-07T18:01:15.475Z,4.40
2017-09-07T18:03:43.337Z,4.33
2017-09-07T18:06:11.409Z,4.67
2017-09-07T18:08:39.376Z,4.53
2017-09-07T18:11:07.248Z,5.17
2017-09-07T18:13:35.121Z,5.73
2017-09-07T18:16:03.714Z,4.77
2017-09-07T18:18:32.630Z,5.27
2017-09-07T18:21:01.638Z,5.47
2017-09-07T18:23:29.546Z,4.17
2017-09-07T18:25:57.479Z,4.63
2017-09-07T18:28:25.415Z,5.20
2017-09-07T18:30:54.170Z,5.17
2017-09-07T18:33:23.071Z,6.00
2017-09-07T18:35:50.952Z,4.77
2017-09-07T18:38:19.770Z,5.30
2017-09-07T18:40:48.532Z,4.30
2017-09-07T18:43:17.288Z,4.80
2017-09-07T18:45:46.002Z,4.77
2017-09-07T18:48:14.716Z,4.30
2017-09-07T18:50:43.452Z,4.03
2017-09-07T18:53:11.644Z,4.90
2017-09-07T18:55:40.782Z,4.60
2017-09-07T18:58:08.699Z,4.90
2017-09-07T19:00:37.382Z,5.20
2017-09-07T19:03:05.229Z,5.53
2017-09-07T19:05:33.539Z,5.83
2017-09-07T19:08:01.950Z,3.70
2017-09-07T19:10:29.891Z,5.20
2017-09-07T19:12:58.348Z,5.40
2017-09-07T19:15:26.447Z,8.20
2017-09-07T19:17:55.023Z,9.80
2017-09-07T19:20:22.884Z,7.57
2017-09-07T19:22:50.868Z,5.93
2017-09-07T19:25:20.133Z,7.33
2017-09-07T19:27:48.986Z,5.40
2017-09-07T19:30:16.991Z,4.77
2017-09-07T19:32:45.781Z,5.43
2017-09-07T19:35:14.821Z,4.70
2017-09-07T19:37:43.662Z,4.03
2017-09-07T19:40:12.658Z,4.00
2017-09-07T19:42:40.868Z,5.00
2017-09-07T19:45:09.715Z,4.37
2017-09-07T19:47:39.942Z,3.53
2017-09-07T19:50:08.155Z,4.00
2017-09-07T19:52:36.851Z,5.60
2017-09-07T19:55:05.687Z,5.20
2017-09-07T19:57:33.485Z,5.90
2017-09-07T20:00:02.697Z,7.50
2017-09-07T20:02:31.538Z,6.13
2017-09-07T20:04:59.405Z,5.53
2017-09-07T20:07:27.294Z,5.90
2017-09-07T20:09:55.140Z,4.80
2017-09-07T20:12:22.896Z,4.20
2017-09-07T20:14:50.699Z,4.70
2017-09-07T20:17:19.791Z,4.00
2017-09-07T20:19:47.760Z,4.43
2017-09-07T20:22:16.367Z,5.03
2017-09-07T20:24:45.109Z,4.33
2017-09-07T20:27:12.874Z,4.60
2017-09-07T20:29:40.964Z,4.77
2017-09-07T20:32:09.542Z,4.97
2017-09-07T20:34:37.919Z,4.10
2017-09-07T20:37:06.796Z,5.90
2017-09-07T20:39:35.474Z,9.30
2017-09-07T20:42:03.483Z,8.83
2017-09-07T20:44:32.171Z,6.83
2017-09-07T20:47:00.210Z,6.93
2017-09-07T20:49:28.064Z,8.03
2017-09-07T20:51:55.941Z,7.67
2017-09-07T20:54:24.228Z,8.20
2017-09-07T20:56:52.346Z,6.70
2017-09-07T20:59:20.127Z,5.50
2017-09-07T21:01:48.837Z,5.70
2017-09-07T21:04:17.234Z,4.67
2017-09-07T21:06:45.067Z,4.50
2017-09-07T21:09:12.845Z,5.80
2017-09-07T21:11:40.715Z,5.27
2017-09-07T21:14:08.582Z,5.53
2017-09-07T21:16:36.457Z,4.47
2017-09-07T21:19:04.844Z,5.80
2017-09-07T21:21:32.704Z,5.50
2017-09-07T21:24:00.563Z,5.27
2017-09-07T21:26:29.564Z,4.17
2017-09-07T21:28:58.789Z,6.83
2017-09-07T21:31:26.656Z,5.63
2017-09-07T21:33:55.287Z,4.97
2017-09-07T21:36:23.286Z,4.80
2017-09-07T21:38:51.642Z,4.70
2017-09-07T21:41:20.326Z,4.60
2017-09-07T21:43:48.098Z,4.83
2017-09-07T21:46:16.191Z,5.23
2017-09-07T21:48:44.027Z,4.80
2017-09-07T21:51:12.529Z,4.80
2017-09-07T21:53:40.965Z,5.27
2017-09-07T21:56:10.224Z,6.70
2017-09-07T21:58:38.804Z,4.90
2017-09-07T22:01:06.739Z,4.90
2017-09-07T22:03:34.768Z,4.73
2017-09-07T22:06:02.677Z,5.70
2017-09-07T22:08:30.464Z,6.00
2017-09-07T22:10:58.337Z,5.27
2017-09-07T22:13:26.280Z,4.50
2017-09-07T22:15:54.148Z,4.20
2017-09-07T22:18:22.748Z,5.27
2017-09-07T22:20:50.815Z,4.90
2017-09-07T22:23:18.695Z,4.53
2017-09-07T22:25:46.633Z,4.40
2017-09-07T22:28:14.360Z,4.70
2017-09-07T22:30:42.585Z,5.00
2017-09-07T22:33:10.556Z,4.50
2017-09-07T22:35:38.508Z,4.73
2017-09-07T22:38:07.427Z,5.50
2017-09-07T22:40:36.079Z,4.30
2017-09-07T22:43:03.860Z,4.83
2017-09-07T22:45:31.603Z,8.37
2017-09-07T22:47:59.392Z,6.10
2017-09-07T22:50:27.263Z,5.17
2017-09-07T22:52:55.216Z,5.10
2017-09-07T22:55:23.194Z,4.70
2017-09-07T22:57:50.959Z,4.57
2017-09-07T23:00:19.558Z,4.80
2017-09-07T23:02:47.410Z,5.00
2017-09-07T23:05:15.392Z,4.00
2017-09-07T23:07:43.347Z,4.70
2017-09-07T23:10:11.420Z,4.60
2017-09-07T23:12:39.578Z,4.27
2017-09-07T23:15:07.480Z,4.47
2017-09-07T23:17:36.130Z,4.20
2017-09-07T23:20:04.122Z,4.40
2017-09-07T23:22:32.990Z,3.70
2017-09-07T23:25:00.768Z,4.73
2017-09-07T23:27:28.562Z,4.60
2017-09-07T23:29:57.217Z,5.80
2017-09-07T23:32:25.273Z,4.80
2017-09-07T23:34:53.002Z,4.30
2017-09-07T23:39:55.836Z,4.50
2017-09-07T23:42:23.821Z,5.40
2017-09-07T23:44:51.892Z,3.63
2017-09-07T23:47:20.580Z,4.33
2017-09-07T23:49:49.242Z,3.70
2017-09-07T23:52:17.219Z,4.60
2017-09-07T23:54:45.000Z,4.43
2017-09-07T23:57:13.237Z,4.00
2017-09-07T23:59:41.048Z,4.33
